Time;durP1;ratioP1;P1;durP2;ratioP2;P2;SDS_P1;SDS_P2;PMS_P1;PMS_P2;Temp;Humidity;BMP_temperature;BMP_pressure;BME280_temperature;BME280_humidity;BME280_pressure;Samples;Min_cycle;Max_cycle;Signal;HPM_P1;HPM_P2
2023/10/21 00:00:33;;;;;;;141.90;132.50;;;11.50;99.90;;;;;;4881182;29;20044;-79
2023/10/21 00:02:58;;;;;;;183.93;172.27;;;11.50;99.90;;;;;;4882355;29;20092;-79
2023/10/21 00:05:25;;;;;;;167.87;156.27;;;11.40;99.90;;;;;;4900814;29;20044;-79
2023/10/21 00:07:51;;;;;;;138.73;128.07;;;11.30;99.90;;;;;;4882940;29;20131;-79
2023/10/21 00:10:17;;;;;;;161.57;150.83;;;11.30;99.90;;;;;;4897997;29;20842;-79
2023/10/21 00:12:45;;;;;;;141.43;131.93;;;11.20;99.90;;;;;;4897798;29;20331;-79
2023/10/21 00:15:11;;;;;;;141.43;131.63;;;11.20;99.90;;;;;;4897509;29;20719;-80
2023/10/21 00:17:36;;;;;;;132.57;123.57;;;11.20;99.90;;;;;;4879857;29;20290;-79
2023/10/21 00:20:06;;;;;;;152.00;141.80;;;11.20;99.90;;;;;;4880676;29;20293;-79
2023/10/21 00:22:38;;;;;;;156.67;144.80;;;11.20;99.90;;;;;;4899299;29;20092;-80
2023/10/21 00:25:05;;;;;;;162.33;152.03;;;11.20;99.90;;;;;;4895831;29;20292;-78
2023/10/21 00:27:30;;;;;;;122.40;114.13;;;11.20;99.90;;;;;;4881532;29;20797;-76
2023/10/21 00:29:56;;;;;;;141.60;131.30;;;11.10;99.90;;;;;;4891492;29;20390;-76
2023/10/21 00:32:22;;;;;;;124.90;116.73;;;11.10;99.90;;;;;;4893206;29;20052;-76
2023/10/21 00:34:49;;;;;;;121.70;113.17;;;11.00;99.90;;;;;;4898868;29;20066;-76
2023/10/21 00:37:15;;;;;;;127.93;118.27;;;11.00;99.90;;;;;;4885648;29;20040;-79
2023/10/21 00:39:42;;;;;;;160.97;149.87;;;10.90;99.90;;;;;;4883955;29;20338;-79
2023/10/21 00:42:08;;;;;;;136.90;127.30;;;10.90;99.90;;;;;;4886177;29;20100;-80
2023/10/21 00:44:34;;;;;;;130.67;120.73;;;10.80;99.90;;;;;;4909260;29;20311;-80
2023/10/21 00:47:01;;;;;;;127.03;117.37;;;10.80;99.90;;;;;;4896768;29;20059;-79
2023/10/21 00:49:31;;;;;;;151.20;141.60;;;10.80;99.90;;;;;;4903153;29;20044;-80
2023/10/21 00:52:02;;;;;;;140.80;130.80;;;10.80;99.90;;;;;;4906794;29;20375;-80
2023/10/21 00:54:28;;;;;;;123.00;113.73;;;10.80;99.90;;;;;;4899711;29;20340;-80
2023/10/21 00:56:54;;;;;;;144.03;133.53;;;10.70;99.90;;;;;;4887935;29;20329;-80
2023/10/21 00:59:20;;;;;;;118.17;109.57;;;10.70;99.90;;;;;;4899693;29;20147;-80
2023/10/21 01:01:46;;;;;;;155.50;145.03;;;10.70;99.90;;;;;;4901340;29;20092;-80
2023/10/21 01:04:13;;;;;;;138.83;128.60;;;10.70;99.90;;;;;;4903236;29;20040;-79
2023/10/21 01:06:39;;;;;;;170.67;161.07;;;10.70;99.90;;;;;;4904837;29;21007;-81
2023/10/21 01:09:05;;;;;;;167.87;157.63;;;10.70;99.90;;;;;;4902309;29;20327;-79
2023/10/21 01:11:30;;;;;;;140.90;129.97;;;10.70;99.90;;;;;;4888693;29;20281;-79
2023/10/21 01:13:57;;;;;;;136.50;126.37;;;10.70;99.90;;;;;;4890658;29;20120;-80
2023/10/21 01:16:22;;;;;;;127.27;118.03;;;10.60;99.90;;;;;;4901188;29;20076;-81
2023/10/21 01:18:48;;;;;;;134.33;125.67;;;10.60;99.90;;;;;;4894457;29;20314;-80
2023/10/21 01:21:14;;;;;;;111.20;103.50;;;10.60;99.90;;;;;;4901553;29;20051;-81
2023/10/21 01:23:40;;;;;;;124.30;116.30;;;10.60;99.90;;;;;;4883989;29;20036;-80
2023/10/21 01:26:07;;;;;;;136.90;125.60;;;10.70;99.90;;;;;;4921068;29;20289;-80
2023/10/21 01:28:33;;;;;;;143.13;132.80;;;10.70;99.90;;;;;;4890713;29;20289;-80
2023/10/21 01:31:00;;;;;;;166.77;156.37;;;10.70;99.90;;;;;;4901364;29;20323;-80
2023/10/21 01:33:26;;;;;;;168.87;158.07;;;10.70;99.90;;;;;;4886772;29;20310;-79
2023/10/21 01:35:51;;;;;;;123.40;114.17;;;10.60;99.90;;;;;;4893239;29;20323;-80
2023/10/21 01:38:20;;;;;;;123.10;114.87;;;10.60;99.90;;;;;;4887419;29;20653;-80
2023/10/21 01:40:46;;;;;;;214.17;201.17;;;10.50;99.90;;;;;;4885277;29;20081;-80
2023/10/21 01:43:12;;;;;;;227.30;213.77;;;10.50;99.90;;;;;;4901291;29;20284;-80
2023/10/21 01:45:38;;;;;;;216.23;204.47;;;10.50;99.90;;;;;;4894933;29;20367;-80
2023/10/21 01:48:05;;;;;;;236.00;222.90;;;10.50;99.90;;;;;;4906527;29;20120;-79
2023/10/21 01:50:31;;;;;;;208.83;197.30;;;10.50;99.90;;;;;;4903365;29;20044;-79
2023/10/21 01:52:57;;;;;;;270.90;255.80;;;10.50;99.90;;;;;;4893478;29;20400;-79
2023/10/21 01:55:23;;;;;;;268.73;254.10;;;10.50;99.90;;;;;;4917827;29;20364;-79
2023/10/21 01:57:49;;;;;;;265.40;250.37;;;10.50;99.90;;;;;;4886848;29;20372;-79
2023/10/21 02:00:21;;;;;;;237.80;224.33;;;10.50;99.90;;;;;;4905871;29;20068;-79
2023/10/21 02:02:51;;;;;;;290.20;272.70;;;10.50;99.90;;;;;;4884746;29;20048;-80
2023/10/21 02:05:18;;;;;;;255.23;240.83;;;10.40;99.90;;;;;;4900075;29;20752;-80
2023/10/21 02:07:44;;;;;;;260.43;245.87;;;10.30;99.90;;;;;;4895344;29;20608;-79
2023/10/21 02:10:10;;;;;;;253.20;238.47;;;10.30;99.90;;;;;;4887715;29;20789;-79
2023/10/21 02:12:36;;;;;;;199.73;187.67;;;10.20;99.90;;;;;;4898957;29;20797;-80
2023/10/21 02:15:02;;;;;;;267.83;253.03;;;10.20;99.90;;;;;;4883629;29;20289;-80
2023/10/21 02:17:28;;;;;;;243.83;230.40;;;10.10;99.90;;;;;;4883066;29;20105;-79
2023/10/21 02:19:56;;;;;;;232.20;219.60;;;10.10;99.90;;;;;;4893533;29;20072;-79
2023/10/21 02:22:26;;;;;;;254.67;240.97;;;10.10;99.90;;;;;;4898986;29;20080;-80
2023/10/21 02:24:55;;;;;;;223.87;211.13;;;10.10;99.90;;;;;;4899450;29;20796;-80
2023/10/21 02:27:21;;;;;;;255.17;241.13;;;10.20;99.90;;;;;;4884155;29;20846;-80
2023/10/21 02:29:47;;;;;;;229.87;217.37;;;10.20;99.90;;;;;;4907599;29;20352;-80
2023/10/21 02:32:13;;;;;;;256.30;242.77;;;10.20;99.90;;;;;;4883899;29;20046;-80
2023/10/21 02:34:39;;;;;;;235.77;223.10;;;10.20;99.90;;;;;;4881604;29;20649;-79
2023/10/21 02:37:04;;;;;;;251.27;238.27;;;10.30;99.90;;;;;;4911568;29;20044;-79
2023/10/21 02:39:30;;;;;;;177.80;167.67;;;10.30;99.90;;;;;;4898844;29;20036;-79
2023/10/21 02:41:56;;;;;;;226.60;214.93;;;10.30;99.90;;;;;;4885001;29;20151;-79
2023/10/21 02:44:22;;;;;;;217.47;205.70;;;10.30;99.90;;;;;;4881763;29;20056;-79
2023/10/21 02:46:50;;;;;;;230.77;218.70;;;10.30;99.90;;;;;;4896215;29;20106;-79
2023/10/21 02:49:16;;;;;;;241.47;228.60;;;10.30;99.90;;;;;;4893807;29;20497;-79
2023/10/21 02:51:42;;;;;;;213.10;201.73;;;10.30;99.90;;;;;;4878105;29;20291;-79
2023/10/21 02:54:07;;;;;;;244.03;231.20;;;10.30;99.90;;;;;;4881712;29;20199;-79
2023/10/21 02:56:34;;;;;;;273.97;260.03;;;10.30;99.90;;;;;;4896433;29;20740;-81
2023/10/21 02:59:00;;;;;;;236.20;223.57;;;10.30;99.90;;;;;;4904010;29;20413;-80
2023/10/21 03:01:25;;;;;;;232.57;220.27;;;10.30;99.90;;;;;;4900608;29;20296;-80
2023/10/21 03:03:52;;;;;;;239.43;227.20;;;10.30;99.90;;;;;;4898476;29;20047;-80
2023/10/21 03:06:19;;;;;;;225.30;213.67;;;10.30;99.90;;;;;;4893409;29;20059;-79
2023/10/21 03:08:45;;;;;;;222.20;210.67;;;10.30;99.90;;;;;;4893714;29;20498;-79
2023/10/21 03:11:11;;;;;;;188.40;178.73;;;10.30;99.90;;;;;;4897560;29;20375;-80
2023/10/21 03:13:38;;;;;;;217.23;206.07;;;10.30;99.90;;;;;;4887931;29;20391;-80
2023/10/21 03:16:09;;;;;;;247.93;235.43;;;10.30;99.90;;;;;;4889348;29;20076;-80
2023/10/21 03:18:36;;;;;;;169.07;160.23;;;10.30;99.90;;;;;;4881648;29;20380;-80
2023/10/21 03:21:03;;;;;;;167.90;158.03;;;10.30;99.90;;;;;;4899168;29;21029;-80
2023/10/21 03:23:29;;;;;;;191.07;181.33;;;10.30;99.90;;;;;;4884282;29;20345;-80
2023/10/21 03:25:59;;;;;;;205.63;195.60;;;10.30;99.90;;;;;;4898469;29;20285;-80
2023/10/21 03:28:26;;;;;;;181.73;172.47;;;10.30;99.90;;;;;;4883834;29;20032;-80
2023/10/21 03:30:56;;;;;;;204.73;194.77;;;10.30;99.90;;;;;;4881866;29;20288;-80
2023/10/21 03:33:23;;;;;;;202.57;192.13;;;10.30;99.90;;;;;;4876632;29;20368;-80
2023/10/21 03:35:52;;;;;;;260.37;247.00;;;10.40;99.90;;;;;;4922633;29;20288;-80
2023/10/21 03:38:18;;;;;;;191.53;181.50;;;10.30;99.90;;;;;;4913676;29;20279;-80
2023/10/21 03:40:45;;;;;;;207.27;196.83;;;10.30;99.90;;;;;;4899724;29;20372;-80
2023/10/21 03:43:11;;;;;;;251.03;238.03;;;10.30;99.90;;;;;;4899460;29;20288;-80
2023/10/21 03:45:37;;;;;;;191.17;181.57;;;10.30;99.90;;;;;;4887951;29;20292;-80
2023/10/21 03:48:03;;;;;;;157.40;149.13;;;10.20;99.90;;;;;;4885972;29;20308;-80
2023/10/21 03:50:29;;;;;;;141.00;133.03;;;10.20;99.90;;;;;;4891270;29;20801;-80
2023/10/21 03:52:55;;;;;;;107.97;101.93;;;10.20;99.90;;;;;;4879152;29;20396;-79
2023/10/21 03:55:21;;;;;;;121.23;114.30;;;10.20;99.90;;;;;;4901485;29;20832;-80
2023/10/21 03:57:49;;;;;;;154.43;146.43;;;10.10;99.90;;;;;;4884278;29;20288;-80
2023/10/21 04:00:15;;;;;;;90.10;85.10;;;10.10;99.90;;;;;;4898173;29;20069;-79
2023/10/21 04:02:41;;;;;;;110.73;104.53;;;10.10;99.90;;;;;;4887774;29;20908;-80
2023/10/21 04:05:08;;;;;;;132.10;125.07;;;10.10;99.90;;;;;;4901619;29;20315;-80
2023/10/21 04:07:34;;;;;;;105.33;99.27;;;10.10;99.90;;;;;;4883903;29;20328;-80
2023/10/21 04:10:00;;;;;;;77.43;72.60;;;10.00;99.90;;;;;;4893365;29;20296;-80
2023/10/21 04:12:26;;;;;;;112.57;106.27;;;10.00;99.90;;;;;;4886607;29;20319;-80
2023/10/21 04:14:52;;;;;;;103.10;97.07;;;10.00;99.90;;;;;;4884544;29;20039;-80
2023/10/21 04:17:18;;;;;;;125.33;118.87;;;10.00;99.90;;;;;;4902076;29;20111;-80
2023/10/21 04:19:44;;;;;;;124.30;117.27;;;10.00;99.90;;;;;;4897522;29;20445;-80
2023/10/21 04:22:10;;;;;;;179.83;171.13;;;10.00;99.90;;;;;;4899643;29;20376;-80
2023/10/21 04:24:36;;;;;;;204.23;194.40;;;10.00;99.90;;;;;;4905467;29;20073;-80
2023/10/21 04:27:02;;;;;;;202.03;192.10;;;9.90;99.90;;;;;;4890988;29;20315;-80
2023/10/21 04:29:27;;;;;;;120.67;113.43;;;9.90;99.90;;;;;;4883376;29;20040;-80
2023/10/21 04:31:53;;;;;;;152.87;144.63;;;9.90;99.90;;;;;;4883402;29;20065;-80
2023/10/21 04:34:20;;;;;;;118.10;111.47;;;9.90;99.90;;;;;;4898258;29;20045;-80
2023/10/21 04:36:46;;;;;;;126.10;119.27;;;9.90;99.90;;;;;;4878744;29;20072;-80
2023/10/21 04:39:14;;;;;;;174.43;165.10;;;9.90;99.90;;;;;;4890871;29;20291;-80
2023/10/21 04:41:40;;;;;;;213.50;203.30;;;9.80;99.90;;;;;;4883530;29;20051;-80
2023/10/21 04:44:06;;;;;;;282.60;268.17;;;9.80;99.90;;;;;;4907218;29;20661;-80
2023/10/21 04:46:32;;;;;;;201.27;191.50;;;9.80;99.90;;;;;;4897501;29;20040;-80
2023/10/21 04:48:58;;;;;;;151.30;142.97;;;9.80;99.90;;;;;;4886346;29;20294;-80
2023/10/21 04:51:23;;;;;;;112.00;105.97;;;9.80;99.90;;;;;;4890442;29;20055;-80
2023/10/21 04:53:49;;;;;;;124.97;117.93;;;9.80;99.90;;;;;;4897677;29;20048;-80
2023/10/21 04:56:15;;;;;;;214.13;203.07;;;9.80;99.90;;;;;;4895554;29;20471;-80
2023/10/21 04:58:41;;;;;;;177.60;168.60;;;9.70;99.90;;;;;;4889326;29;20039;-80
2023/10/21 05:01:08;;;;;;;149.33;140.90;;;9.70;99.90;;;;;;4897681;29;20052;-80
2023/10/21 05:03:34;;;;;;;175.60;166.47;;;9.70;99.90;;;;;;4901348;29;20299;-80
2023/10/21 05:06:00;;;;;;;182.90;173.13;;;9.70;99.90;;;;;;4888148;29;20300;-80
2023/10/21 05:08:26;;;;;;;199.53;188.17;;;9.70;99.90;;;;;;4880579;29;20036;-80
2023/10/21 05:10:52;;;;;;;124.43;116.60;;;9.80;99.90;;;;;;4867977;29;20358;-80
2023/10/21 05:13:17;;;;;;;146.17;137.60;;;9.80;99.90;;;;;;4894033;29;20116;-80
2023/10/21 05:15:44;;;;;;;178.13;168.10;;;9.80;99.90;;;;;;4885481;29;20047;-80
2023/10/21 05:18:09;;;;;;;161.37;151.87;;;9.80;99.90;;;;;;4892428;29;20480;-80
2023/10/21 05:20:35;;;;;;;170.17;160.37;;;9.80;99.90;;;;;;4872882;29;20332;-80
2023/10/21 05:23:01;;;;;;;195.73;184.27;;;9.80;99.90;;;;;;4881136;29;20040;-80
2023/10/21 05:25:26;;;;;;;182.20;171.47;;;9.90;99.90;;;;;;4884380;29;20151;-80
2023/10/21 05:27:52;;;;;;;117.70;110.57;;;9.90;99.90;;;;;;4884510;29;20067;-80
2023/10/21 05:30:18;;;;;;;159.77;150.67;;;9.90;99.90;;;;;;4896690;29;20497;-80
2023/10/21 05:32:43;;;;;;;173.00;163.17;;;9.90;99.90;;;;;;4884993;29;20040;-80
2023/10/21 05:35:09;;;;;;;212.07;200.43;;;9.90;99.90;;;;;;4900187;29;20044;-80
2023/10/21 05:37:35;;;;;;;226.20;212.87;;;9.90;99.90;;;;;;4883825;29;20041;-80
2023/10/21 05:40:05;;;;;;;173.70;163.43;;;9.90;99.90;;;;;;4900379;29;20047;-80
2023/10/21 05:42:31;;;;;;;200.20;187.97;;;9.90;99.90;;;;;;4885012;29;20072;-80
2023/10/21 05:44:57;;;;;;;202.73;189.43;;;9.90;99.90;;;;;;4900612;29;20641;-80
2023/10/21 05:47:23;;;;;;;215.87;202.03;;;9.80;99.90;;;;;;4883476;29;20797;-81
2023/10/21 05:49:49;;;;;;;238.77;224.00;;;9.80;99.90;;;;;;4880148;29;20340;-80
2023/10/21 05:52:14;;;;;;;130.50;121.53;;;9.80;99.90;;;;;;4884690;29;20401;-81
2023/10/21 05:54:41;;;;;;;185.73;174.37;;;9.80;99.90;;;;;;4884555;29;20045;-81
2023/10/21 05:57:06;;;;;;;165.17;155.77;;;9.80;99.90;;;;;;4903145;29;20068;-81
2023/10/21 05:59:32;;;;;;;196.13;183.87;;;9.80;99.90;;;;;;4884074;29;20422;-81
2023/10/21 06:01:58;;;;;;;199.77;187.83;;;9.80;99.90;;;;;;4899461;29;20041;-80
2023/10/21 06:04:24;;;;;;;133.37;123.33;;;9.90;99.90;;;;;;4882830;29;20060;-80
2023/10/21 06:06:54;;;;;;;146.43;137.13;;;9.80;99.90;;;;;;4892448;29;20040;-80
2023/10/21 06:09:22;;;;;;;171.87;160.10;;;9.90;99.90;;;;;;4882954;29;20161;-80
2023/10/21 06:11:48;;;;;;;201.47;188.53;;;9.90;99.90;;;;;;4880457;29;20436;-80
2023/10/21 06:14:13;;;;;;;157.57;146.27;;;9.90;99.90;;;;;;4890984;29;20387;-80
2023/10/21 06:16:39;;;;;;;144.87;134.83;;;9.90;99.90;;;;;;4905762;29;20131;-80
2023/10/21 06:19:05;;;;;;;152.30;142.13;;;9.80;99.90;;;;;;4881939;29;20505;-81
2023/10/21 06:21:30;;;;;;;134.20;125.27;;;9.90;99.90;;;;;;4902328;29;20101;-81
2023/10/21 06:23:56;;;;;;;219.10;205.73;;;9.80;99.90;;;;;;4896572;29;20103;-80
2023/10/21 06:26:22;;;;;;;159.10;149.00;;;9.80;99.90;;;;;;4895351;29;20616;-78
2023/10/21 06:28:48;;;;;;;120.07;111.60;;;9.90;99.90;;;;;;4894441;29;20111;-77
2023/10/21 06:31:14;;;;;;;149.40;139.50;;;9.90;99.90;;;;;;4894488;29;20120;-78
2023/10/21 06:33:39;;;;;;;121.47;111.63;;;9.90;99.90;;;;;;4880616;29;20308;-78
2023/10/21 06:36:05;;;;;;;143.33;134.63;;;9.90;99.90;;;;;;4879089;29;20469;-77
2023/10/21 06:38:31;;;;;;;135.83;126.07;;;9.90;99.90;;;;;;4895099;29;20140;-77
2023/10/21 06:40:57;;;;;;;155.33;145.20;;;10.00;99.90;;;;;;4885915;29;20048;-78
2023/10/21 06:43:23;;;;;;;162.13;151.13;;;10.00;99.90;;;;;;4913954;29;20064;-77
2023/10/21 06:45:49;;;;;;;164.10;152.10;;;10.00;99.90;;;;;;4893308;29;20059;-77
2023/10/21 06:48:15;;;;;;;171.77;160.93;;;10.00;99.90;;;;;;4908938;29;20801;-77
2023/10/21 06:50:42;;;;;;;188.97;177.03;;;10.10;99.90;;;;;;4889657;29;20747;-77
2023/10/21 06:53:08;;;;;;;159.67;149.87;;;10.10;99.90;;;;;;4889739;29;20317;-77
2023/10/21 06:55:44;;;;;;;198.70;186.30;;;10.10;99.90;;;;;;4893157;29;20860;-77
2023/10/21 06:58:11;;;;;;;202.07;189.23;;;10.20;99.90;;;;;;4900446;29;20300;-77
2023/10/21 07:00:38;;;;;;;193.73;182.03;;;10.30;99.90;;;;;;4876041;29;20308;-77
2023/10/21 07:03:05;;;;;;;159.17;149.17;;;10.30;99.90;;;;;;4893337;29;20296;-77
2023/10/21 07:05:31;;;;;;;189.83;178.70;;;10.40;99.90;;;;;;4896405;29;20324;-77
2023/10/21 07:07:56;;;;;;;208.07;195.17;;;10.50;99.90;;;;;;4877436;29;20936;-77
2023/10/21 07:10:23;;;;;;;178.03;167.07;;;10.50;99.90;;;;;;4893417;29;20040;-77
2023/10/21 07:12:51;;;;;;;231.80;217.90;;;10.50;99.90;;;;;;4877045;29;20044;-77
2023/10/21 07:15:17;;;;;;;199.63;187.03;;;10.60;99.90;;;;;;4894690;29;20285;-77
2023/10/21 07:17:42;;;;;;;112.67;104.90;;;10.60;99.90;;;;;;4886855;29;20824;-77
2023/10/21 07:20:09;;;;;;;141.73;131.83;;;10.60;99.90;;;;;;4891486;29;20723;-77
2023/10/21 07:22:36;;;;;;;206.40;194.07;;;10.70;99.90;;;;;;4884534;29;20080;-77
2023/10/21 07:25:02;;;;;;;238.30;225.53;;;10.70;99.90;;;;;;4890525;29;20332;-76
2023/10/21 07:27:27;;;;;;;231.83;218.80;;;10.80;99.90;;;;;;4893870;29;20285;-76
2023/10/21 07:29:55;;;;;;;238.83;225.37;;;10.80;99.90;;;;;;4878904;29;20877;-76
2023/10/21 07:32:22;;;;;;;243.63;230.17;;;10.90;99.90;;;;;;4876165;29;20123;-76
2023/10/21 07:34:48;;;;;;;232.60;219.67;;;10.90;99.90;;;;;;4876530;29;20289;-76
2023/10/21 07:37:14;;;;;;;232.70;219.63;;;11.00;99.90;;;;;;4888922;29;20296;-76
2023/10/21 07:39:40;;;;;;;218.53;206.67;;;11.00;99.90;;;;;;4876505;29;20041;-76
2023/10/21 07:42:06;;;;;;;208.73;197.40;;;11.10;99.90;;;;;;4902296;29;20561;-76
2023/10/21 07:44:32;;;;;;;243.70;230.37;;;11.20;99.90;;;;;;4874225;29;20296;-76
2023/10/21 07:46:57;;;;;;;235.80;223.37;;;11.20;99.90;;;;;;4880460;29;20258;-76
2023/10/21 07:49:24;;;;;;;230.63;218.67;;;11.30;99.90;;;;;;4897932;29;20536;-76
2023/10/21 07:51:50;;;;;;;206.17;195.17;;;11.40;99.90;;;;;;4876572;29;20045;-76
2023/10/21 07:54:16;;;;;;;204.97;194.43;;;11.40;99.90;;;;;;4878216;29;20308;-77
2023/10/21 07:56:45;;;;;;;154.30;145.80;;;11.50;99.90;;;;;;4891349;29;20319;-76
2023/10/21 07:59:11;;;;;;;214.83;203.87;;;11.50;99.90;;;;;;4893497;29;20060;-76
2023/10/21 08:01:37;;;;;;;217.43;206.27;;;11.50;99.90;;;;;;4875764;29;20289;-76
2023/10/21 08:04:04;;;;;;;179.53;170.37;;;11.60;99.90;;;;;;4901134;29;20456;-76
2023/10/21 08:06:30;;;;;;;216.60;205.27;;;11.60;99.90;;;;;;4891728;29;20312;-76
2023/10/21 08:08:56;;;;;;;156.67;148.17;;;11.60;99.90;;;;;;4891965;29;20379;-76
2023/10/21 08:11:22;;;;;;;217.80;205.50;;;11.60;99.90;;;;;;4892262;29;20297;-76
2023/10/21 08:13:48;;;;;;;121.97;114.17;;;11.70;99.90;;;;;;4879013;29;20312;-76
2023/10/21 08:16:14;;;;;;;129.23;121.60;;;11.80;99.90;;;;;;4890785;29;20046;-76
2023/10/21 08:18:40;;;;;;;138.37;130.43;;;11.80;99.90;;;;;;4870592;29;20104;-76
2023/10/21 08:21:06;;;;;;;120.33;113.40;;;11.80;99.90;;;;;;4890668;29;20048;-76
2023/10/21 08:23:31;;;;;;;114.90;108.07;;;11.80;99.90;;;;;;4894977;29;20388;-76
2023/10/21 08:25:57;;;;;;;145.20;137.33;;;11.90;99.90;;;;;;4891429;29;20049;-76
2023/10/21 08:28:24;;;;;;;149.47;140.50;;;11.90;99.90;;;;;;4898032;29;20118;-76
2023/10/21 08:30:50;;;;;;;174.20;164.63;;;12.00;99.90;;;;;;4876727;29;20048;-76
2023/10/21 08:33:16;;;;;;;110.33;103.47;;;12.00;99.90;;;;;;4877956;29;20877;-76
2023/10/21 08:35:43;;;;;;;196.13;185.70;;;12.10;99.90;;;;;;4895591;29;20083;-76
2023/10/21 08:38:08;;;;;;;132.00;124.07;;;12.20;99.90;;;;;;4895838;29;21034;-76
2023/10/21 08:40:38;;;;;;;151.27;143.20;;;12.20;99.90;;;;;;4891638;29;20319;-76
2023/10/21 08:43:04;;;;;;;159.57;150.57;;;12.30;99.90;;;;;;4874250;29;20049;-77
2023/10/21 08:45:35;;;;;;;144.03;135.93;;;12.30;99.90;;;;;;4888589;29;20292;-78
2023/10/21 08:48:01;;;;;;;164.37;155.63;;;12.30;99.90;;;;;;4882127;29;20284;-78
2023/10/21 08:50:27;;;;;;;141.10;133.30;;;12.40;99.90;;;;;;4873504;29;20324;-77
2023/10/21 08:52:55;;;;;;;142.47;135.17;;;12.40;99.90;;;;;;4883704;29;20340;-78
2023/10/21 08:55:23;;;;;;;130.43;123.53;;;12.50;99.90;;;;;;4891932;29;20626;-77
2023/10/21 08:57:48;;;;;;;130.90;123.53;;;12.60;99.90;;;;;;4878135;29;20300;-77
2023/10/21 09:00:15;;;;;;;157.17;148.93;;;12.60;99.90;;;;;;4895597;29;20289;-78
2023/10/21 09:02:40;;;;;;;123.57;117.10;;;12.70;99.90;;;;;;4886098;29;20041;-77
2023/10/21 09:05:13;;;;;;;135.67;128.53;;;12.80;99.90;;;;;;4882142;29;20363;-77
2023/10/21 09:07:49;;;;;;;122.00;115.63;;;12.70;99.90;;;;;;4892381;29;20048;-77
2023/10/21 09:10:18;;;;;;;129.07;122.83;;;12.70;99.90;;;;;;4877884;29;20288;-77
2023/10/21 09:12:45;;;;;;;105.53;99.87;;;12.80;99.90;;;;;;4895510;29;20332;-77
2023/10/21 09:15:12;;;;;;;133.43;127.00;;;12.90;99.90;;;;;;4896473;29;20678;-77
2023/10/21 09:17:40;;;;;;;118.50;112.73;;;12.80;99.90;;;;;;4876244;29;20368;-77
2023/10/21 09:20:14;;;;;;;156.73;149.07;;;12.80;99.90;;;;;;4893718;29;20295;-77
2023/10/21 09:22:43;;;;;;;149.90;142.43;;;12.80;99.90;;;;;;4892399;29;20777;-77
2023/10/21 09:25:19;;;;;;;123.70;117.57;;;12.90;99.90;;;;;;4895915;29;20864;-77
2023/10/21 09:27:57;;;;;;;208.87;198.77;;;12.90;99.90;;;;;;4896376;29;20324;-77
2023/10/21 09:30:26;;;;;;;138.83;132.03;;;13.00;99.90;;;;;;4881512;29;20634;-77
2023/10/21 09:33:00;;;;;;;129.70;123.47;;;12.90;99.90;;;;;;4881586;29;20572;-77
2023/10/21 09:35:30;;;;;;;159.40;151.95;;;12.90;99.90;;;;;;4899053;29;20770;-77
2023/10/21 09:38:16;;;;;;;155.00;147.97;;;12.90;99.90;;;;;;4892693;29;20711;-77
2023/10/21 09:40:43;;;;;;;135.43;128.97;;;12.90;99.90;;;;;;4889652;29;20638;-77
2023/10/21 09:43:11;;;;;;;147.60;140.40;;;12.90;99.90;;;;;;4875007;29;20639;-77
2023/10/21 09:45:42;;;;;;;127.23;121.43;;;13.00;99.90;;;;;;4875333;29;20388;-76
2023/10/21 09:48:11;;;;;;;123.03;117.27;;;13.00;99.90;;;;;;4877093;29;20300;-77
2023/10/21 09:50:39;;;;;;;135.23;129.10;;;13.00;99.90;;;;;;4891268;29;20380;-76
2023/10/21 09:53:12;;;;;;;128.63;122.40;;;12.90;99.90;;;;;;4897748;29;20884;-77
2023/10/21 09:55:41;;;;;;;118.67;112.83;;;12.80;99.90;;;;;;4888461;29;20301;-77
2023/10/21 09:58:08;;;;;;;116.20;110.43;;;12.80;99.90;;;;;;4893771;29;20361;-76
2023/10/21 10:00:35;;;;;;;126.77;120.57;;;12.80;99.90;;;;;;4895388;29;20738;-76
2023/10/21 10:03:02;;;;;;;124.13;117.80;;;12.70;99.90;;;;;;4889923;29;20285;-76
2023/10/21 10:05:28;;;;;;;141.10;134.33;;;12.70;99.90;;;;;;4877420;29;20300;-76
2023/10/21 10:07:54;;;;;;;98.37;93.97;;;12.70;99.90;;;;;;4892906;29;20308;-76
2023/10/21 10:10:27;;;;;;;126.27;120.67;;;12.70;99.90;;;;;;4893784;29;21422;-77
2023/10/21 10:13:06;;;;;;;127.00;121.23;;;12.70;99.90;;;;;;4877504;29;20312;-77
2023/10/21 10:15:40;;;;;;;124.40;118.70;;;12.80;99.90;;;;;;4876631;29;20301;-77
2023/10/21 10:18:19;;;;;;;163.10;156.02;;;12.70;99.90;;;;;;4892926;29;20304;-76
2023/10/21 10:20:50;;;;;;;197.23;187.63;;;12.70;99.90;;;;;;4899844;29;20544;-76
2023/10/21 10:23:18;;;;;;;150.37;143.67;;;12.80;99.90;;;;;;4895602;29;20340;-77
2023/10/21 10:25:46;;;;;;;125.73;120.30;;;12.80;99.90;;;;;;4896532;29;20922;-78
2023/10/21 10:28:27;;;;;;;132.40;126.60;;;12.80;99.90;;;;;;4907694;29;20292;-77
2023/10/21 10:30:56;;;;;;;149.70;143.07;;;12.90;99.90;;;;;;4905176;29;20301;-79
2023/10/21 10:33:28;;;;;;;111.77;106.83;;;12.90;99.90;;;;;;4890618;29;20313;-77
2023/10/21 10:35:58;;;;;;;138.27;132.30;;;12.90;99.90;;;;;;4898956;29;20329;-78
2023/10/21 10:38:41;;;;;;;108.07;103.23;;;12.90;99.90;;;;;;4888134;29;21038;-77
2023/10/21 10:41:11;;;;;;;119.30;114.00;;;13.00;99.90;;;;;;4912693;29;20340;-78
2023/10/21 10:43:44;;;;;;;126.57;120.97;;;13.00;99.90;;;;;;4900905;29;20383;-77
2023/10/21 10:46:10;;;;;;;143.60;137.40;;;12.90;99.90;;;;;;4896389;29;20301;-77
2023/10/21 10:48:37;;;;;;;111.70;106.67;;;12.80;99.90;;;;;;4892873;29;20352;-78
2023/10/21 10:51:13;;;;;;;100.60;96.10;;;12.70;99.90;;;;;;4888228;29;20323;-77
2023/10/21 10:53:39;;;;;;;125.90;120.23;;;12.70;99.90;;;;;;4903216;29;20321;-77
2023/10/21 10:56:09;;;;;;;122.97;117.43;;;12.90;99.90;;;;;;4890404;29;20363;-78
2023/10/21 10:58:35;;;;;;;123.00;117.50;;;13.00;99.90;;;;;;4886810;29;20052;-79
2023/10/21 11:01:01;;;;;;;113.17;108.20;;;13.10;99.90;;;;;;4888716;29;20819;-78
2023/10/21 11:03:33;;;;;;;92.63;88.40;;;13.20;99.90;;;;;;4895243;29;20096;-77
2023/10/21 11:05:59;;;;;;;84.23;80.43;;;13.20;99.90;;;;;;4910892;29;20608;-79
2023/10/21 11:08:26;;;;;;;92.20;88.13;;;13.30;99.90;;;;;;4906698;29;20649;-79
2023/10/21 11:11:02;;;;;;;121.73;116.57;;;13.60;99.90;;;;;;4890624;29;20288;-79
2023/10/21 11:13:28;;;;;;;89.73;85.73;;;13.70;99.90;;;;;;4908024;29;20313;-79
2023/10/21 11:15:57;;;;;;;143.63;137.30;;;13.70;99.90;;;;;;4908139;29;20372;-79
2023/10/21 11:18:25;;;;;;;125.47;120.13;;;13.60;99.90;;;;;;4886144;29;20033;-79
2023/10/21 11:20:52;;;;;;;98.80;94.37;;;13.50;99.90;;;;;;4911201;29;20387;-80
2023/10/21 11:23:19;;;;;;;156.47;149.80;;;13.40;99.90;;;;;;4896050;29;20308;-79
2023/10/21 11:25:54;;;;;;;183.33;174.77;;;13.20;99.90;;;;;;4908970;29;20360;-79
2023/10/21 11:28:20;;;;;;;;;;;13.00;99.90;;;;;;4889967;29;20281;-80
2023/10/21 11:30:47;;;;;;;74.80;71.77;;;12.90;99.90;;;;;;4908738;29;19979;-80
2023/10/21 11:33:13;;;;;;;57.73;55.30;;;12.80;99.90;;;;;;4908424;29;20052;-79
2023/10/21 11:35:44;;;;;;;92.43;88.17;;;12.70;99.90;;;;;;4887216;29;20357;-79
2023/10/21 11:38:17;;;;;;;95.80;91.77;;;12.70;99.90;;;;;;4894437;29;20306;-79
2023/10/21 11:40:45;;;;;;;78.03;74.63;;;12.60;99.90;;;;;;4891630;29;20622;-78
2023/10/21 11:43:13;;;;;;;65.67;62.87;;;12.70;99.90;;;;;;4894801;29;20288;-79
2023/10/21 11:45:40;;;;;;;78.57;75.27;;;12.60;99.90;;;;;;4895531;29;20295;-80
2023/10/21 11:48:10;;;;;;;77.63;74.23;;;12.70;99.90;;;;;;4892458;29;20283;-79
2023/10/21 11:50:43;;;;;;;139.80;133.47;;;12.70;99.90;;;;;;4891553;29;20328;-79
2023/10/21 11:53:10;;;;;;;97.30;93.37;;;12.60;99.90;;;;;;4907090;29;20864;-79
2023/10/21 12:36:41;;;;;;;82.07;78.73;;;13.20;99.90;;;;;;4896978;29;20665;-77
2023/10/21 12:41:39;;;;;;;67.33;64.57;;;13.30;99.90;;;;;;4904229;29;20289;-78
2023/10/21 12:44:12;;;;;;;95.43;91.27;;;13.20;99.90;;;;;;4886664;29;20276;-77
2023/10/21 12:46:40;;;;;;;75.50;72.30;;;13.10;99.90;;;;;;4901776;29;20502;-77
2023/10/21 12:49:17;;;;;;;115.20;110.17;;;13.10;99.90;;;;;;4882563;29;20296;-77
2023/10/21 12:51:43;;;;;;;83.17;79.53;;;13.10;99.90;;;;;;4901386;29;20285;-78
2023/10/21 12:54:11;;;;;;;71.13;68.03;;;13.10;99.90;;;;;;4915231;29;20830;-77